sensor_id;sensor_type;location;lat;lon;timestamp;temperature;humidity
44305;DHT22;30019;50.576;8.568;2024-01-25T06:58:18;4.70;99.90
44305;DHT22;30019;50.576;8.568;2024-01-25T07:00:43;4.50;99.90
44305;DHT22;30019;50.576;8.568;2024-01-25T07:03:10;4.40;99.90
44305;DHT22;30019;50.576;8.568;2024-01-25T07:05:35;4.30;99.90
44305;DHT22;30019;50.576;8.568;2024-01-25T07:08:04;4.20;99.90
44305;DHT22;30019;50.576;8.568;2024-01-25T07:10:30;4.10;99.90
44305;DHT22;30019;50.576;8.568;2024-01-25T07:12:55;4.00;99.90
44305;DHT22;30019;50.576;8.568;2024-01-25T07:15:21;4.00;99.90
44305;DHT22;30019;50.576;8.568;2024-01-25T07:17:46;3.90;99.90
44305;DHT22;30019;50.576;8.568;2024-01-25T07:20:12;3.80;99.90
44305;DHT22;30019;50.576;8.568;2024-01-25T07:22:37;3.80;99.90
44305;DHT22;30019;50.576;8.568;2024-01-25T07:25:03;3.80;99.90
44305;DHT22;30019;50.576;8.568;2024-01-25T07:27:29;3.80;99.90
44305;DHT22;30019;50.576;8.568;2024-01-25T07:29:55;3.80;99.90
44305;DHT22;30019;50.576;8.568;2024-01-25T07:32:20;3.90;99.90
44305;DHT22;30019;50.576;8.568;2024-01-25T07:34:46;3.90;99.90
44305;DHT22;30019;50.576;8.568;2024-01-25T07:37:12;3.90;99.90
44305;DHT22;30019;50.576;8.568;2024-01-25T07:39:38;3.90;99.90
44305;DHT22;30019;50.576;8.568;2024-01-25T07:42:03;4.00;99.90
44305;DHT22;30019;50.576;8.568;2024-01-25T07:44:29;4.10;99.90
44305;DHT22;30019;50.576;8.568;2024-01-25T07:46:54;4.20;99.90
44305;DHT22;30019;50.576;8.568;2024-01-25T07:49:20;4.30;99.90
44305;DHT22;30019;50.576;8.568;2024-01-25T07:51:45;4.40;99.90
44305;DHT22;30019;50.576;8.568;2024-01-25T07:54:12;4.40;99.90
44305;DHT22;30019;50.576;8.568;2024-01-25T07:56:37;4.40;99.90
44305;DHT22;30019;50.576;8.568;2024-01-25T07:59:03;4.50;99.90
44305;DHT22;30019;50.576;8.568;2024-01-25T08:01:28;4.50;99.90
44305;DHT22;30019;50.576;8.568;2024-01-25T08:03:54;4.50;99.90
44305;DHT22;30019;50.576;8.568;2024-01-25T08:06:19;4.50;99.90
44305;DHT22;30019;50.576;8.568;2024-01-25T08:08:45;4.50;99.90
44305;DHT22;30019;50.576;8.568;2024-01-25T08:11:10;4.50;99.90
44305;DHT22;30019;50.576;8.568;2024-01-25T08:13:36;4.50;99.90
44305;DHT22;30019;50.576;8.568;2024-01-25T08:16:01;4.70;99.90
44305;DHT22;30019;50.576;8.568;2024-01-25T08:18:27;4.70;99.90
44305;DHT22;30019;50.576;8.568;2024-01-25T08:20:55;4.80;99.90
44305;DHT22;30019;50.576;8.568;2024-01-25T08:23:21;4.90;99.90
44305;DHT22;30019;50.576;8.568;2024-01-25T08:35:30;5.80;99.90
44305;DHT22;30019;50.576;8.568;2024-01-25T08:37:56;5.70;99.90
44305;DHT22;30019;50.576;8.568;2024-01-25T08:42:47;5.70;99.90
44305;DHT22;30019;50.576;8.568;2024-01-25T08:45:12;5.80;99.90
44305;DHT22;30019;50.576;8.568;2024-01-25T08:50:05;6.00;99.90
44305;DHT22;30019;50.576;8.568;2024-01-25T08:52:36;6.10;99.90
44305;DHT22;30019;50.576;8.568;2024-01-25T08:59:53;6.40;99.90
44305;DHT22;30019;50.576;8.568;2024-01-25T09:02:20;6.50;99.90
44305;DHT22;30019;50.576;8.568;2024-01-25T09:07:13;6.70;99.90
44305;DHT22;30019;50.576;8.568;2024-01-25T09:14:33;6.90;99.90
44305;DHT22;30019;50.576;8.568;2024-01-25T09:16:58;7.00;99.90
44305;DHT22;30019;50.576;8.568;2024-01-25T09:19:24;7.10;99.90
44305;DHT22;30019;50.576;8.568;2024-01-25T09:21:49;7.10;99.90
44305;DHT22;30019;50.576;8.568;2024-01-25T09:24:15;7.10;99.90
44305;DHT22;30019;50.576;8.568;2024-01-25T09:26:40;7.20;99.90
44305;DHT22;30019;50.576;8.568;2024-01-25T09:29:06;7.20;99.90
44305;DHT22;30019;50.576;8.568;2024-01-25T09:31:31;7.30;99.90
44305;DHT22;30019;50.576;8.568;2024-01-25T09:36:22;7.40;99.90
44305;DHT22;30019;50.576;8.568;2024-01-25T09:38:48;7.50;99.90
44305;DHT22;30019;50.576;8.568;2024-01-25T09:41:14;7.50;99.90
44305;DHT22;30019;50.576;8.568;2024-01-25T09:43:39;7.50;99.90
44305;DHT22;30019;50.576;8.568;2024-01-25T09:46:05;7.50;99.90
44305;DHT22;30019;50.576;8.568;2024-01-25T09:50:59;7.60;99.90
44305;DHT22;30019;50.576;8.568;2024-01-25T09:53:24;7.60;99.90
44305;DHT22;30019;50.576;8.568;2024-01-25T09:56:06;7.60;99.90
44305;DHT22;30019;50.576;8.568;2024-01-25T09:58:39;7.70;99.90
44305;DHT22;30019;50.576;8.568;2024-01-25T10:01:09;7.60;99.90
44305;DHT22;30019;50.576;8.568;2024-01-25T10:03:36;7.70;99.90
44305;DHT22;30019;50.576;8.568;2024-01-25T10:06:01;7.70;99.90
44305;DHT22;30019;50.576;8.568;2024-01-25T10:08:27;7.70;99.90
44305;DHT22;30019;50.576;8.568;2024-01-25T10:10:52;7.80;99.90
44305;DHT22;30019;50.576;8.568;2024-01-25T10:13:19;7.70;99.90
44305;DHT22;30019;50.576;8.568;2024-01-25T10:15:44;7.80;99.90
44305;DHT22;30019;50.576;8.568;2024-01-25T10:18:12;8.00;99.90
44305;DHT22;30019;50.576;8.568;2024-01-25T10:20:39;8.00;99.90
44305;DHT22;30019;50.576;8.568;2024-01-25T10:23:05;7.90;99.90
44305;DHT22;30019;50.576;8.568;2024-01-25T11:14:13;9.30;99.90
44305;DHT22;30019;50.576;8.568;2024-01-25T11:16:39;9.20;99.90
44305;DHT22;30019;50.576;8.568;2024-01-25T11:19:07;9.10;99.90
44305;DHT22;30019;50.576;8.568;2024-01-25T11:21:39;9.30;99.90
44305;DHT22;30019;50.576;8.568;2024-01-25T11:24:05;9.40;99.90
44305;DHT22;30019;50.576;8.568;2024-01-25T11:26:36;9.30;99.90
44305;DHT22;30019;50.576;8.568;2024-01-25T11:29:03;9.10;99.90
44305;DHT22;30019;50.576;8.568;2024-01-25T11:31:28;8.90;99.90
44305;DHT22;30019;50.576;8.568;2024-01-25T11:33:57;8.80;99.90
44305;DHT22;30019;50.576;8.568;2024-01-25T11:36:24;8.70;99.90
44305;DHT22;30019;50.576;8.568;2024-01-25T11:38:50;8.70;99.90
44305;DHT22;30019;50.576;8.568;2024-01-25T11:41:15;8.90;99.90
44305;DHT22;30019;50.576;8.568;2024-01-25T11:43:41;9.00;99.90
44305;DHT22;30019;50.576;8.568;2024-01-25T11:46:06;8.80;99.90
44305;DHT22;30019;50.576;8.568;2024-01-25T11:48:32;8.80;99.90
44305;DHT22;30019;50.576;8.568;2024-01-25T11:51:00;8.80;99.90
44305;DHT22;30019;50.576;8.568;2024-01-25T11:53:27;8.80;99.90
44305;DHT22;30019;50.576;8.568;2024-01-25T11:55:53;8.80;99.90
44305;DHT22;30019;50.576;8.568;2024-01-25T11:58:20;8.70;99.90
44305;DHT22;30019;50.576;8.568;2024-01-25T12:00:45;8.80;99.90
44305;DHT22;30019;50.576;8.568;2024-01-25T12:03:11;8.90;99.90
44305;DHT22;30019;50.576;8.568;2024-01-25T12:05:36;9.00;99.90
44305;DHT22;30019;50.576;8.568;2024-01-25T12:08:07;9.00;99.90
44305;DHT22;30019;50.576;8.568;2024-01-25T12:10:33;8.90;99.90
44305;DHT22;30019;50.576;8.568;2024-01-25T12:12:58;8.90;99.90
44305;DHT22;30019;50.576;8.568;2024-01-25T12:15:24;9.00;99.90
44305;DHT22;30019;50.576;8.568;2024-01-25T12:17:49;8.90;99.90
44305;DHT22;30019;50.576;8.568;2024-01-25T12:20:14;8.90;99.90
44305;DHT22;30019;50.576;8.568;2024-01-25T12:22:41;8.80;99.90
44305;DHT22;30019;50.576;8.568;2024-01-25T12:25:09;8.80;99.90
44305;DHT22;30019;50.576;8.568;2024-01-25T12:27:35;8.90;99.90
44305;DHT22;30019;50.576;8.568;2024-01-25T12:30:01;8.90;99.90
44305;DHT22;30019;50.576;8.568;2024-01-25T12:32:26;9.00;99.90
44305;DHT22;30019;50.576;8.568;2024-01-25T12:34:52;9.00;99.90
44305;DHT22;30019;50.576;8.568;2024-01-25T12:37:18;9.00;99.90
44305;DHT22;30019;50.576;8.568;2024-01-25T12:39:43;9.00;99.90
44305;DHT22;30019;50.576;8.568;2024-01-25T12:42:08;9.20;99.90
44305;DHT22;30019;50.576;8.568;2024-01-25T12:44:34;9.20;99.90
44305;DHT22;30019;50.576;8.568;2024-01-25T12:46:59;9.30;99.90
44305;DHT22;30019;50.576;8.568;2024-01-25T12:49:27;9.40;99.90
44305;DHT22;30019;50.576;8.568;2024-01-25T12:51:54;9.30;99.90
44305;DHT22;30019;50.576;8.568;2024-01-25T12:54:19;9.40;99.90
44305;DHT22;30019;50.576;8.568;2024-01-25T12:56:45;9.40;99.90
44305;DHT22;30019;50.576;8.568;2024-01-25T12:59:10;9.40;99.90
44305;DHT22;30019;50.576;8.568;2024-01-25T13:01:36;9.40;99.90
44305;DHT22;30019;50.576;8.568;2024-01-25T13:04:02;9.30;99.90
44305;DHT22;30019;50.576;8.568;2024-01-25T13:06:27;9.30;99.90
44305;DHT22;30019;50.576;8.568;2024-01-25T13:08:53;9.20;99.90
44305;DHT22;30019;50.576;8.568;2024-01-25T13:11:18;9.20;99.90
44305;DHT22;30019;50.576;8.568;2024-01-25T13:13:44;9.30;99.90
44305;DHT22;30019;50.576;8.568;2024-01-25T13:16:10;9.30;99.90
44305;DHT22;30019;50.576;8.568;2024-01-25T13:18:36;9.40;99.90
44305;DHT22;30019;50.576;8.568;2024-01-25T13:21:01;9.30;99.90
44305;DHT22;30019;50.576;8.568;2024-01-25T13:23:26;9.30;99.90
44305;DHT22;30019;50.576;8.568;2024-01-25T13:25:52;9.40;99.90
44305;DHT22;30019;50.576;8.568;2024-01-25T13:28:17;9.40;99.90
44305;DHT22;30019;50.576;8.568;2024-01-25T13:30:43;9.40;99.90
44305;DHT22;30019;50.576;8.568;2024-01-25T13:33:08;9.40;99.90
44305;DHT22;30019;50.576;8.568;2024-01-25T13:35:34;9.40;99.90
44305;DHT22;30019;50.576;8.568;2024-01-25T13:37:59;9.30;99.90
44305;DHT22;30019;50.576;8.568;2024-01-25T13:40:27;9.20;99.90
44305;DHT22;30019;50.576;8.568;2024-01-25T13:42:52;9.10;99.90
44305;DHT22;30019;50.576;8.568;2024-01-25T13:45:20;9.20;99.90
44305;DHT22;30019;50.576;8.568;2024-01-25T13:47:45;9.20;99.90
44305;DHT22;30019;50.576;8.568;2024-01-25T13:50:11;9.10;99.90
44305;DHT22;30019;50.576;8.568;2024-01-25T13:52:36;9.10;99.90
44305;DHT22;30019;50.576;8.568;2024-01-25T13:55:02;9.00;99.90
44305;DHT22;30019;50.576;8.568;2024-01-25T13:57:27;9.00;99.90
44305;DHT22;30019;50.576;8.568;2024-01-25T13:59:53;8.90;99.90
44305;DHT22;30019;50.576;8.568;2024-01-25T14:02:18;8.90;99.90
44305;DHT22;30019;50.576;8.568;2024-01-25T14:04:44;9.00;99.90
44305;DHT22;30019;50.576;8.568;2024-01-25T14:07:09;9.00;99.90
44305;DHT22;30019;50.576;8.568;2024-01-25T14:09:35;9.00;99.90
44305;DHT22;30019;50.576;8.568;2024-01-25T14:12:01;9.10;99.90
44305;DHT22;30019;50.576;8.568;2024-01-25T14:14:26;9.20;99.90
44305;DHT22;30019;50.576;8.568;2024-01-25T14:16:52;9.10;99.90
44305;DHT22;30019;50.576;8.568;2024-01-25T14:19:17;9.00;99.90
44305;DHT22;30019;50.576;8.568;2024-01-25T14:21:45;9.10;99.90
44305;DHT22;30019;50.576;8.568;2024-01-25T14:24:12;9.10;99.90
44305;DHT22;30019;50.576;8.568;2024-01-25T14:26:37;9.10;99.90
44305;DHT22;30019;50.576;8.568;2024-01-25T14:29:03;9.10;99.90
44305;DHT22;30019;50.576;8.568;2024-01-25T14:31:28;9.10;99.90
44305;DHT22;30019;50.576;8.568;2024-01-25T14:33:54;9.10;99.90
44305;DHT22;30019;50.576;8.568;2024-01-25T14:36:19;9.10;99.90
44305;DHT22;30019;50.576;8.568;2024-01-25T14:38:45;9.00;99.90
44305;DHT22;30019;50.576;8.568;2024-01-25T14:41:10;9.00;99.90
44305;DHT22;30019;50.576;8.568;2024-01-25T14:43:39;9.20;99.90
44305;DHT22;30019;50.576;8.568;2024-01-25T14:46:05;9.10;99.90
44305;DHT22;30019;50.576;8.568;2024-01-25T14:48:31;9.10;99.90
44305;DHT22;30019;50.576;8.568;2024-01-25T14:50:56;9.10;99.90
44305;DHT22;30019;50.576;8.568;2024-01-25T14:53:22;9.20;99.90
44305;DHT22;30019;50.576;8.568;2024-01-25T14:55:47;9.20;99.90
44305;DHT22;30019;50.576;8.568;2024-01-25T14:58:13;9.30;99.90
44305;DHT22;30019;50.576;8.568;2024-01-25T15:00:40;9.20;99.90
44305;DHT22;30019;50.576;8.568;2024-01-25T15:03:05;9.20;99.90
44305;DHT22;30019;50.576;8.568;2024-01-25T15:05:31;9.20;99.90
44305;DHT22;30019;50.576;8.568;2024-01-25T15:07:57;9.20;99.90
44305;DHT22;30019;50.576;8.568;2024-01-25T15:10:22;9.30;99.90
44305;DHT22;30019;50.576;8.568;2024-01-25T15:12:48;9.20;99.90
44305;DHT22;30019;50.576;8.568;2024-01-25T15:15:14;9.10;99.90
44305;DHT22;30019;50.576;8.568;2024-01-25T15:17:40;9.10;99.90
44305;DHT22;30019;50.576;8.568;2024-01-25T15:20:05;9.10;99.90
44305;DHT22;30019;50.576;8.568;2024-01-25T15:22:31;9.10;99.90
44305;DHT22;30019;50.576;8.568;2024-01-25T15:24:56;9.10;99.90
44305;DHT22;30019;50.576;8.568;2024-01-25T15:27:22;9.10;99.90
44305;DHT22;30019;50.576;8.568;2024-01-25T15:29:47;9.10;99.90
44305;DHT22;30019;50.576;8.568;2024-01-25T15:32:14;9.00;99.90
44305;DHT22;30019;50.576;8.568;2024-01-25T15:34:39;9.00;99.90
44305;DHT22;30019;50.576;8.568;2024-01-25T15:37:05;8.90;99.90
44305;DHT22;30019;50.576;8.568;2024-01-25T15:39:31;8.90;99.90
44305;DHT22;30019;50.576;8.568;2024-01-25T15:41:57;8.80;99.90
44305;DHT22;30019;50.576;8.568;2024-01-25T15:44:22;8.70;99.90
44305;DHT22;30019;50.576;8.568;2024-01-25T15:46:48;8.70;99.90
44305;DHT22;30019;50.576;8.568;2024-01-25T15:49:13;8.70;99.90
44305;DHT22;30019;50.576;8.568;2024-01-25T15:51:40;8.60;99.90
44305;DHT22;30019;50.576;8.568;2024-01-25T15:54:06;8.60;99.90
44305;DHT22;30019;50.576;8.568;2024-01-25T15:56:31;8.50;99.90
44305;DHT22;30019;50.576;8.568;2024-01-25T15:58:57;8.30;99.90
44305;DHT22;30019;50.576;8.568;2024-01-25T16:01:22;8.20;99.90
44305;DHT22;30019;50.576;8.568;2024-01-25T16:03:48;8.00;99.90
44305;DHT22;30019;50.576;8.568;2024-01-25T16:06:13;8.00;99.90
44305;DHT22;30019;50.576;8.568;2024-01-25T16:08:39;8.00;99.90
